createdAt,value
2019-01-18T00:03:04.966Z,1.17
2019-01-18T00:05:33.569Z,1.10
2019-01-18T00:08:02.103Z,1.30
2019-01-18T00:10:30.547Z,1.37
2019-01-18T00:13:18.474Z,1.30
2019-01-18T00:15:46.928Z,1.20
2019-01-18T00:18:15.532Z,1.20
2019-01-18T00:20:44.040Z,1.20
2019-01-18T00:23:12.494Z,1.50
2019-01-18T00:25:41.021Z,1.00
2019-01-18T00:28:09.598Z,1.20
2019-01-18T00:30:39.219Z,1.20
2019-01-18T00:33:07.700Z,1.40
2019-01-18T00:35:36.212Z,1.40
2019-01-18T00:38:04.813Z,1.03
2019-01-18T00:40:33.334Z,1.20
2019-01-18T00:43:01.839Z,1.30
2019-01-18T00:45:30.291Z,1.27
2019-01-18T00:47:58.796Z,1.60
2019-01-18T00:50:27.251Z,1.00
2019-01-18T00:52:55.708Z,1.50
2019-01-18T00:55:24.303Z,1.37
2019-01-18T00:57:52.746Z,1.37
2019-01-18T01:00:26.707Z,1.43
2019-01-18T01:02:55.488Z,1.40
2019-01-18T01:05:25.792Z,1.63
2019-01-18T01:07:54.594Z,1.40
2019-01-18T01:10:23.512Z,1.50
2019-01-18T01:12:52.025Z,1.53
2019-01-18T01:15:21.109Z,1.30
2019-01-18T01:17:49.798Z,1.30
2019-01-18T01:20:20.546Z,1.37
2019-01-18T01:22:49.616Z,1.40
2019-01-18T01:25:18.207Z,1.43
2019-01-18T01:27:46.912Z,1.70
2019-01-18T01:30:26.254Z,1.60
2019-01-18T01:32:54.923Z,1.50
2019-01-18T01:35:23.611Z,1.40
2019-01-18T01:37:52.085Z,1.50
2019-01-18T01:40:23.612Z,1.50
2019-01-18T01:42:52.351Z,1.40
2019-01-18T01:45:21.246Z,1.33
2019-01-18T01:47:49.835Z,1.43
2019-01-18T01:50:21.036Z,1.40
2019-01-18T01:52:49.746Z,1.40
2019-01-18T01:55:18.646Z,1.50
2019-01-18T01:57:47.114Z,1.50
2019-01-18T02:00:18.444Z,1.70
2019-01-18T02:02:47.095Z,1.60
2019-01-18T02:05:15.890Z,1.47
2019-01-18T02:07:44.510Z,1.60
2019-01-18T02:10:15.276Z,1.63
2019-01-18T02:12:43.812Z,1.50
2019-01-18T02:15:15.199Z,1.60
2019-01-18T02:17:43.784Z,1.63
2019-01-18T02:20:17.532Z,1.60
2019-01-18T02:22:46.250Z,1.53
2019-01-18T02:25:15.060Z,1.40
2019-01-18T02:27:45.115Z,1.53
2019-01-18T02:30:19.313Z,1.50
2019-01-18T02:32:48.007Z,1.60
2019-01-18T02:35:16.553Z,1.70
2019-01-18T02:37:45.060Z,1.70
2019-01-18T02:40:14.621Z,1.70
2019-01-18T02:42:43.139Z,1.60
2019-01-18T02:45:14.720Z,1.93
2019-01-18T02:47:43.247Z,1.47
2019-01-18T02:50:12.712Z,1.70
2019-01-18T02:52:41.237Z,1.83
2019-01-18T02:55:10.529Z,1.70
2019-01-18T02:57:39.048Z,1.80
2019-01-18T03:00:13.464Z,1.87
2019-01-18T03:02:42.006Z,1.90
2019-01-18T03:05:12.970Z,1.90
2019-01-18T03:07:41.599Z,1.60
2019-01-18T03:10:21.866Z,2.00
2019-01-18T03:12:50.451Z,2.10
2019-01-18T03:15:19.048Z,1.87
2019-01-18T03:17:47.645Z,1.80
2019-01-18T03:20:17.851Z,1.90
2019-01-18T03:22:46.539Z,1.60
2019-01-18T03:25:17.838Z,1.80
2019-01-18T03:27:46.355Z,1.70
2019-01-18T03:30:20.766Z,1.60
2019-01-18T03:32:49.310Z,1.83
2019-01-18T03:35:19.958Z,1.63
2019-01-18T03:37:48.544Z,1.90
2019-01-18T03:40:18.704Z,1.70
2019-01-18T03:42:48.066Z,1.70
2019-01-18T03:45:18.452Z,1.90
2019-01-18T03:47:47.423Z,1.90
2019-01-18T03:50:19.063Z,1.93
2019-01-18T03:52:47.607Z,1.80
2019-01-18T03:55:16.484Z,1.70
2019-01-18T03:57:45.065Z,1.50
2019-01-18T04:00:16.236Z,2.00
2019-01-18T04:02:44.894Z,1.70
2019-01-18T04:05:14.083Z,1.80
2019-01-18T04:07:42.782Z,1.80
2019-01-18T04:10:14.545Z,1.60
2019-01-18T04:12:43.159Z,1.60
2019-01-18T04:15:14.629Z,1.70
2019-01-18T04:17:43.162Z,1.73
2019-01-18T04:20:14.124Z,1.80
2019-01-18T04:22:42.651Z,2.07
2019-01-18T04:25:14.427Z,1.70
2019-01-18T04:27:42.874Z,1.80
2019-01-18T04:30:14.549Z,1.93
2019-01-18T04:32:43.073Z,1.80
2019-01-18T04:35:12.875Z,1.70
2019-01-18T04:37:41.471Z,1.73
2019-01-18T04:40:15.774Z,1.80
2019-01-18T04:42:44.249Z,1.67
2019-01-18T04:45:12.870Z,1.80
2019-01-18T04:47:41.444Z,1.93
2019-01-18T04:50:15.553Z,1.90
2019-01-18T04:52:44.127Z,1.80
2019-01-18T04:55:12.791Z,1.90
2019-01-18T04:57:41.307Z,1.70
2019-01-18T05:00:15.899Z,2.07
2019-01-18T05:02:44.477Z,1.70
2019-01-18T05:05:13.099Z,1.87
2019-01-18T05:07:41.564Z,2.20
2019-01-18T05:10:15.330Z,2.20
2019-01-18T05:12:43.972Z,2.07
2019-01-18T05:15:20.921Z,2.27
2019-01-18T05:17:49.453Z,2.20
2019-01-18T05:20:18.186Z,2.10
2019-01-18T05:22:46.646Z,2.20
2019-01-18T05:25:15.547Z,1.70
2019-01-18T05:27:44.123Z,2.27
2019-01-18T05:30:29.773Z,1.90
2019-01-18T05:32:58.347Z,2.00
2019-01-18T05:35:26.932Z,2.00
2019-01-18T05:37:55.546Z,2.07
2019-01-18T05:40:24.275Z,2.00
2019-01-18T05:42:52.804Z,2.20
2019-01-18T05:45:22.501Z,2.00
2019-01-18T05:47:52.196Z,1.77
2019-01-18T05:50:26.167Z,2.03
2019-01-18T05:52:54.700Z,1.90
2019-01-18T05:55:23.358Z,1.80
2019-01-18T05:57:51.888Z,1.73
2019-01-18T06:00:27.422Z,1.80
2019-01-18T06:02:56.040Z,2.23
2019-01-18T06:05:24.769Z,2.07
2019-01-18T06:07:53.459Z,2.33
2019-01-18T06:10:22.079Z,2.10
2019-01-18T06:12:50.840Z,1.67
2019-01-18T06:15:19.397Z,1.67
2019-01-18T06:17:47.924Z,1.70
2019-01-18T06:20:17.490Z,1.47
2019-01-18T06:22:46.085Z,1.60
2019-01-18T06:25:14.617Z,1.83
2019-01-18T06:27:43.251Z,1.30
2019-01-18T06:30:18.843Z,1.63
2019-01-18T06:32:47.366Z,1.90
2019-01-18T06:35:16.187Z,1.80
2019-01-18T06:37:46.403Z,1.67
2019-01-18T06:40:20.179Z,1.67
2019-01-18T06:42:50.496Z,1.40
2019-01-18T06:45:30.130Z,1.57
2019-01-18T06:47:58.718Z,1.97
2019-01-18T06:50:27.212Z,1.40
2019-01-18T06:52:55.836Z,1.50
2019-01-18T06:55:24.282Z,1.90
2019-01-18T06:57:52.805Z,1.67
2019-01-18T07:00:31.828Z,1.70
2019-01-18T07:03:00.423Z,1.93
2019-01-18T07:05:28.957Z,1.70
2019-01-18T07:07:57.564Z,1.60
2019-01-18T07:10:26.504Z,1.63
2019-01-18T07:12:55.020Z,1.70
2019-01-18T07:15:23.558Z,1.80
2019-01-18T07:17:52.011Z,1.97
2019-01-18T07:20:21.252Z,2.10
2019-01-18T07:22:50.120Z,1.80
2019-01-18T07:25:24.225Z,1.73
2019-01-18T07:27:52.952Z,1.90
2019-01-18T07:30:24.141Z,1.73
2019-01-18T07:32:52.765Z,1.57
2019-01-18T07:35:21.452Z,1.60
2019-01-18T07:37:50.152Z,1.53
2019-01-18T07:40:18.674Z,1.53
2019-01-18T07:42:47.350Z,1.40
2019-01-18T07:45:21.693Z,1.27
2019-01-18T07:47:50.224Z,1.27
2019-01-18T07:50:20.028Z,1.27
2019-01-18T07:52:49.092Z,1.60
2019-01-18T07:55:17.988Z,1.20
2019-01-18T07:57:46.578Z,1.20
2019-01-18T08:00:26.567Z,1.70
2019-01-18T08:02:55.332Z,1.60
2019-01-18T08:05:25.701Z,1.50
2019-01-18T08:07:54.700Z,1.40
2019-01-18T08:10:24.564Z,1.60
2019-01-18T08:12:53.159Z,1.60
2019-01-18T08:15:24.531Z,1.70
2019-01-18T08:17:53.075Z,1.40
2019-01-18T08:20:23.524Z,1.40
2019-01-18T08:22:52.456Z,1.50
2019-01-18T08:25:20.984Z,1.57
2019-01-18T08:27:49.620Z,1.33
2019-01-18T08:30:20.410Z,1.70
2019-01-18T08:32:49.008Z,1.83
2019-01-18T08:35:19.245Z,1.60
2019-01-18T08:37:47.771Z,1.60
2019-01-18T08:40:24.980Z,1.50
2019-01-18T08:42:53.515Z,1.77
2019-01-18T08:45:31.021Z,1.90
2019-01-18T08:47:59.547Z,1.90
2019-01-18T08:50:28.012Z,2.10
2019-01-18T08:52:56.543Z,1.80
2019-01-18T08:55:24.996Z,2.00
2019-01-18T08:57:53.455Z,1.90
2019-01-18T09:00:24.938Z,2.17
2019-01-18T09:02:53.585Z,1.73
2019-01-18T09:05:26.459Z,2.03
2019-01-18T09:07:55.310Z,1.50
2019-01-18T09:10:29.701Z,1.90
2019-01-18T09:12:58.356Z,1.93
2019-01-18T09:15:26.871Z,2.30
2019-01-18T09:17:55.518Z,2.03
2019-01-18T09:20:31.417Z,1.80
2019-01-18T09:23:00.355Z,2.20
2019-01-18T09:25:28.868Z,1.83
2019-01-18T09:27:57.556Z,2.00
2019-01-18T09:30:28.486Z,2.07
2019-01-18T09:32:57.173Z,1.93
2019-01-18T09:35:26.542Z,2.00
2019-01-18T09:37:57.001Z,2.00
2019-01-18T09:40:27.807Z,2.10
2019-01-18T09:42:56.560Z,2.53
2019-01-18T09:45:25.168Z,1.93
2019-01-18T09:47:53.625Z,1.80
2019-01-18T09:50:24.783Z,2.43
2019-01-18T09:52:53.720Z,2.10
2019-01-18T09:55:22.244Z,2.10
2019-01-18T09:57:50.720Z,2.10
2019-01-18T10:00:27.703Z,2.27
2019-01-18T10:02:56.694Z,2.47
2019-01-18T10:05:25.385Z,2.30
2019-01-18T10:07:53.936Z,2.50
2019-01-18T10:10:23.429Z,2.30
2019-01-18T10:12:52.171Z,2.27
2019-01-18T10:15:26.601Z,2.07
2019-01-18T10:18:00.610Z,2.00
2019-01-18T10:20:25.879Z,2.20
2019-01-18T10:22:54.620Z,2.20
2019-01-18T10:25:23.153Z,2.20
2019-01-18T10:27:51.694Z,2.10
2019-01-18T10:30:22.998Z,2.03
2019-01-18T10:32:54.198Z,1.67
2019-01-18T10:35:24.230Z,2.13
2019-01-18T10:37:52.883Z,1.57
2019-01-18T10:40:21.469Z,1.80
2019-01-18T10:42:50.612Z,2.00
2019-01-18T10:45:20.261Z,1.90
2019-01-18T10:47:50.222Z,1.97
2019-01-18T10:50:21.445Z,1.83
2019-01-18T10:52:50.192Z,2.00
2019-01-18T10:55:18.779Z,2.17
2019-01-18T10:57:47.440Z,2.40
2019-01-18T11:00:22.055Z,2.50
2019-01-18T11:02:52.074Z,2.70
2019-01-18T11:05:21.756Z,2.50
2019-01-18T11:07:50.438Z,2.27
2019-01-18T11:10:19.215Z,2.90
2019-01-18T11:12:48.019Z,3.03
2019-01-18T11:15:21.909Z,2.90
2019-01-18T11:17:50.477Z,2.73
2019-01-18T11:20:44.686Z,2.50
2019-01-18T11:23:13.244Z,2.97
2019-01-18T11:25:41.821Z,2.60
2019-01-18T11:28:10.273Z,2.60
2019-01-18T11:30:38.979Z,2.53
2019-01-18T11:33:07.468Z,2.27
2019-01-18T11:35:35.991Z,1.97
2019-01-18T11:38:04.886Z,2.23
2019-01-18T11:40:33.784Z,1.73
2019-01-18T11:43:02.392Z,1.90
2019-01-18T11:45:30.904Z,2.00
2019-01-18T11:47:59.437Z,2.00
2019-01-18T11:50:28.781Z,1.70
2019-01-18T11:52:57.331Z,1.90
2019-01-18T11:55:25.778Z,1.70
2019-01-18T11:57:54.300Z,1.80
2019-01-18T12:00:25.155Z,1.80
2019-01-18T12:02:54.049Z,1.63
2019-01-18T12:05:22.646Z,1.80
2019-01-18T12:07:51.407Z,1.60
2019-01-18T12:10:28.706Z,1.77
2019-01-18T12:12:57.280Z,1.73
2019-01-18T12:15:26.080Z,1.60
2019-01-18T12:17:54.528Z,1.80
2019-01-18T12:20:34.402Z,1.70
2019-01-18T12:23:03.056Z,1.87
2019-01-18T12:25:31.630Z,1.90
2019-01-18T12:28:00.143Z,1.90
2019-01-18T12:30:31.463Z,2.40
2019-01-18T12:32:59.980Z,2.00
2019-01-18T12:35:28.731Z,2.20
2019-01-18T12:37:57.176Z,2.17
2019-01-18T12:40:25.705Z,2.23
2019-01-18T12:42:54.864Z,2.20
2019-01-18T12:45:24.017Z,2.07
2019-01-18T12:47:52.472Z,2.30
2019-01-18T12:50:29.648Z,2.30
2019-01-18T12:52:58.092Z,2.17
2019-01-18T12:55:26.827Z,2.30
2019-01-18T12:57:55.350Z,2.27
2019-01-18T13:00:25.909Z,2.33
2019-01-18T13:02:54.832Z,2.13
2019-01-18T13:05:26.551Z,2.50
2019-01-18T13:07:55.136Z,2.23
2019-01-18T13:10:23.885Z,2.43
2019-01-18T13:12:52.628Z,2.37
2019-01-18T13:15:30.299Z,2.33
2019-01-18T13:17:58.827Z,2.30
2019-01-18T13:20:27.281Z,2.50
2019-01-18T13:22:55.815Z,2.20
2019-01-18T13:25:24.277Z,2.23
2019-01-18T13:27:52.807Z,2.40
2019-01-18T13:30:21.456Z,2.10
2019-01-18T13:32:49.929Z,2.20
2019-01-18T13:35:18.510Z,2.13
2019-01-18T13:37:47.018Z,2.00
2019-01-18T13:40:18.181Z,2.07
2019-01-18T13:42:46.703Z,1.90
2019-01-18T13:45:15.449Z,1.93
2019-01-18T13:47:45.454Z,2.13
2019-01-18T13:50:18.514Z,1.80
2019-01-18T13:52:48.634Z,2.00
2019-01-18T13:55:22.687Z,1.90
2019-01-18T13:57:51.216Z,2.20
2019-01-18T14:00:19.870Z,2.10
2019-01-18T14:02:48.774Z,2.10
2019-01-18T14:05:17.539Z,2.27
2019-01-18T14:07:46.309Z,1.93
2019-01-18T14:10:29.735Z,1.97
2019-01-18T14:12:58.256Z,2.20
2019-01-18T14:15:27.005Z,2.07
2019-01-18T14:17:55.523Z,2.27
2019-01-18T14:20:26.093Z,2.40
2019-01-18T14:22:55.345Z,2.37
2019-01-18T14:25:24.188Z,2.20
2019-01-18T14:27:52.969Z,2.20
2019-01-18T14:30:26.015Z,2.47
2019-01-18T14:32:55.686Z,2.30
2019-01-18T14:35:24.830Z,2.47
2019-01-18T14:37:53.931Z,2.40
2019-01-18T14:40:22.528Z,2.30
2019-01-18T14:42:53.521Z,2.97
2019-01-18T14:45:27.749Z,2.20
2019-01-18T14:47:56.285Z,2.27
2019-01-18T14:50:24.868Z,2.37
2019-01-18T14:52:53.988Z,2.40
2019-01-18T14:55:22.658Z,2.40
2019-01-18T14:57:51.334Z,2.00
2019-01-18T15:00:23.270Z,2.30
2019-01-18T15:02:52.199Z,2.37
2019-01-18T15:05:20.811Z,2.30
2019-01-18T15:07:49.267Z,2.53
2019-01-18T15:10:20.415Z,2.60
2019-01-18T15:12:50.975Z,2.63
2019-01-18T15:15:19.676Z,2.37
2019-01-18T15:17:49.974Z,2.50
2019-01-18T15:20:26.921Z,2.70
2019-01-18T15:22:55.851Z,2.47
2019-01-18T15:25:24.469Z,2.60
2019-01-18T15:27:53.007Z,3.03
2019-01-18T15:30:24.174Z,2.50
2019-01-18T15:32:52.705Z,2.50
2019-01-18T15:35:23.871Z,2.57
2019-01-18T15:37:52.393Z,2.80
2019-01-18T15:40:23.657Z,2.40
2019-01-18T15:42:52.252Z,2.67
2019-01-18T15:45:21.007Z,2.60
2019-01-18T15:47:49.531Z,2.70
2019-01-18T15:50:29.569Z,2.80
2019-01-18T15:52:58.286Z,2.67
2019-01-18T15:55:27.190Z,2.27
2019-01-18T15:57:55.919Z,2.87
2019-01-18T16:00:30.222Z,3.53
2019-01-18T16:02:58.819Z,2.60
2019-01-18T16:05:27.495Z,3.00
2019-01-18T16:07:56.290Z,3.07
2019-01-18T16:10:25.222Z,2.87
2019-01-18T16:12:54.555Z,3.23
2019-01-18T16:15:31.961Z,2.57
2019-01-18T16:18:00.886Z,2.90
2019-01-18T16:20:29.435Z,2.83
2019-01-18T16:22:57.904Z,3.47
2019-01-18T16:25:29.989Z,3.30
2019-01-18T16:27:58.618Z,3.07
2019-01-18T16:30:27.710Z,3.20
2019-01-18T16:32:57.657Z,3.07
2019-01-18T16:35:26.585Z,3.13
2019-01-18T16:37:55.646Z,3.10
2019-01-18T16:40:34.648Z,3.37
2019-01-18T16:43:18.343Z,3.70
2019-01-18T16:45:46.886Z,3.37
2019-01-18T16:48:15.401Z,3.70
2019-01-18T16:50:44.022Z,3.03
2019-01-18T16:53:12.601Z,3.20
2019-01-18T16:55:41.067Z,3.83
2019-01-18T16:58:09.738Z,3.67
2019-01-18T17:00:41.519Z,4.33
2019-01-18T17:03:09.970Z,3.80
2019-01-18T17:05:38.661Z,3.97
2019-01-18T17:08:07.736Z,3.23
2019-01-18T17:10:36.433Z,4.30
2019-01-18T17:13:05.596Z,3.90
2019-01-18T17:15:34.125Z,2.93
2019-01-18T17:18:02.667Z,3.20
2019-01-18T17:20:34.296Z,3.50
2019-01-18T17:23:02.835Z,3.60
2019-01-18T17:25:31.310Z,3.00
2019-01-18T17:27:59.752Z,3.17
2019-01-18T17:30:28.361Z,3.60
2019-01-18T17:32:56.885Z,3.60
2019-01-18T17:35:46.951Z,3.60
2019-01-18T17:38:27.449Z,3.77
2019-01-18T17:41:14.214Z,3.10
2019-01-18T17:44:03.447Z,3.70
2019-01-18T17:46:54.825Z,3.60
2019-01-18T17:49:35.534Z,3.07
2019-01-18T17:52:13.229Z,3.03
2019-01-18T17:54:47.443Z,2.70
2019-01-18T17:57:21.918Z,3.40
2019-01-18T18:00:15.077Z,2.40
2019-01-18T18:03:07.907Z,2.97
2019-01-18T18:06:06.716Z,2.93
2019-01-18T18:08:41.148Z,2.60
2019-01-18T18:11:21.489Z,2.93
2019-01-18T18:14:20.700Z,3.20
2019-01-18T18:16:55.904Z,2.80
2019-01-18T18:19:42.582Z,3.00
2019-01-18T18:22:30.833Z,2.70
2019-01-18T18:25:33.928Z,2.90
2019-01-18T18:28:32.847Z,2.70
2019-01-18T18:31:20.696Z,2.80
2019-01-18T18:34:11.576Z,2.50
2019-01-18T18:36:58.348Z,2.40
2019-01-18T18:39:52.187Z,2.87
2019-01-18T18:42:32.148Z,2.53
2019-01-18T18:45:09.081Z,2.50
2019-01-18T18:47:52.113Z,2.30
2019-01-18T18:50:45.083Z,2.77
2019-01-18T18:53:34.335Z,2.37
2019-01-18T18:56:18.058Z,2.10
2019-01-18T18:58:52.710Z,1.93
2019-01-18T19:01:29.989Z,2.50
2019-01-18T19:04:27.734Z,1.90
2019-01-18T19:07:14.401Z,2.20
2019-01-18T19:10:00.988Z,2.33
2019-01-18T19:13:01.342Z,2.50
2019-01-18T19:15:32.960Z,2.60
2019-01-18T19:18:26.021Z,2.33
2019-01-18T19:21:00.425Z,2.67
2019-01-18T19:23:34.688Z,2.60
2019-01-18T19:26:11.988Z,2.40
2019-01-18T19:29:06.427Z,2.50
2019-01-18T19:32:02.024Z,2.20
2019-01-18T19:34:33.640Z,2.20
2019-01-18T19:37:13.676Z,2.00
2019-01-18T19:39:47.929Z,2.20
2019-01-18T19:42:45.041Z,2.40
2019-01-18T19:45:43.872Z,2.43
2019-01-18T19:48:15.499Z,1.93
2019-01-18T19:50:52.930Z,2.10
2019-01-18T19:53:24.534Z,1.80
2019-01-18T19:56:15.160Z,1.80
2019-01-18T19:58:54.955Z,2.10
2019-01-18T20:01:59.524Z,2.00
2019-01-18T20:04:48.914Z,2.10
2019-01-18T20:07:41.860Z,2.30
2019-01-18T20:10:15.923Z,2.17
2019-01-18T20:12:56.541Z,2.20
2019-01-18T20:15:36.641Z,1.90
2019-01-18T20:18:27.486Z,2.30
2019-01-18T20:21:01.775Z,2.30
2019-01-18T20:23:48.455Z,2.20
2019-01-18T20:26:22.533Z,2.30
2019-01-18T20:29:12.061Z,2.87
2019-01-18T20:31:48.760Z,3.00
2019-01-18T20:34:20.469Z,2.17
2019-01-18T20:36:57.875Z,2.50
2019-01-18T20:39:29.601Z,2.37
2019-01-18T20:42:03.644Z,2.57
2019-01-18T20:44:35.259Z,2.97
2019-01-18T20:47:12.379Z,2.40
2019-01-18T20:49:43.983Z,2.67
2019-01-18T20:52:32.085Z,3.03
2019-01-18T20:55:09.274Z,2.60
2019-01-18T20:57:49.578Z,2.40
2019-01-18T21:00:27.111Z,2.90
2019-01-18T21:03:04.299Z,2.53
2019-01-18T21:05:41.664Z,2.50
2019-01-18T21:08:15.795Z,2.70
2019-01-18T21:10:59.218Z,2.93
2019-01-18T21:13:45.471Z,2.60
2019-01-18T21:16:32.325Z,2.57
2019-01-18T21:19:09.840Z,2.60
2019-01-18T21:21:56.327Z,3.03
2019-01-18T21:24:56.655Z,2.77
2019-01-18T21:27:49.874Z,2.93
2019-01-18T21:30:33.034Z,2.77
2019-01-18T21:33:19.574Z,2.60
2019-01-18T21:36:07.913Z,2.87
2019-01-18T21:38:57.303Z,3.03
2019-01-18T21:41:43.515Z,2.87
2019-01-18T21:44:33.144Z,2.70
2019-01-18T21:47:22.515Z,2.57
2019-01-18T21:50:02.982Z,2.83
2019-01-18T21:52:46.636Z,3.17
2019-01-18T21:55:21.049Z,3.13
2019-01-18T21:58:01.374Z,3.10
2019-01-18T22:01:06.324Z,3.10
2019-01-18T22:03:43.444Z,3.80
2019-01-18T22:06:21.129Z,3.17
2019-01-18T22:09:01.739Z,3.10
2019-01-18T22:11:41.690Z,3.20
2019-01-18T22:14:18.576Z,3.10
2019-01-18T22:17:09.616Z,3.60
2019-01-18T22:19:50.131Z,3.00
2019-01-18T22:22:42.765Z,3.17
2019-01-18T22:25:38.413Z,3.20
2019-01-18T22:28:21.102Z,3.00
2019-01-18T22:30:58.600Z,2.90
2019-01-18T22:33:30.145Z,2.40
2019-01-18T22:36:16.834Z,3.90
2019-01-18T22:38:54.220Z,2.80
2019-01-18T22:41:37.669Z,3.17
2019-01-18T22:44:21.795Z,3.13
2019-01-18T22:46:56.456Z,3.20
2019-01-18T22:49:33.626Z,3.20
2019-01-18T22:52:05.246Z,3.13
2019-01-18T22:54:48.109Z,3.30
2019-01-18T22:57:44.081Z,3.07
2019-01-18T23:00:51.672Z,3.00
2019-01-18T23:03:39.502Z,3.20
2019-01-18T23:06:37.600Z,3.13
2019-01-18T23:09:21.327Z,2.73
2019-01-18T23:12:01.861Z,3.20
2019-01-18T23:14:58.866Z,3.23
2019-01-18T23:17:42.559Z,2.60
2019-01-18T23:20:28.979Z,3.00
2019-01-18T23:23:00.640Z,3.37
2019-01-18T23:25:41.161Z,3.23
2019-01-18T23:28:25.126Z,2.73
2019-01-18T23:31:14.871Z,2.63
2019-01-18T23:33:51.708Z,3.00
2019-01-18T23:36:37.970Z,2.83
2019-01-18T23:39:15.414Z,2.57
2019-01-18T23:42:07.876Z,2.87
2019-01-18T23:45:02.800Z,2.63
2019-01-18T23:47:56.966Z,2.80
2019-01-18T23:50:46.084Z,3.03
2019-01-18T23:53:35.711Z,2.63
2019-01-18T23:56:25.243Z,2.77
2019-01-18T23:59:02.216Z,2.60
